Time;durP1;ratioP1;P1;durP2;ratioP2;P2;SDS_P1;SDS_P2;PMS_P1;PMS_P2;Temp;Humidity;BMP_temperature;BMP_pressure;BME280_temperature;BME280_humidity;BME280_pressure;Samples;Min_cycle;Max_cycle;Signal;HPM_P1;HPM_P2
2021/11/12 00:04:38;;;;;;;16.67;8.80;;;2.60;99.90;;;;;;5098117;28;20500;-88
2021/11/12 00:12:35;;;;;;;17.08;9.43;;;2.60;99.90;;;;;;5097923;28;20069;-88
2021/11/12 00:15:02;;;;;;;17.13;9.52;;;2.60;99.90;;;;;;5096562;28;20105;-89
2021/11/12 00:17:31;;;;;;;18.95;10.65;;;2.50;99.90;;;;;;5096826;28;20389;-89
2021/11/12 00:19:57;;;;;;;17.52;10.60;;;2.50;99.90;;;;;;5081335;28;20035;-88
2021/11/12 00:22:24;;;;;;;17.60;10.43;;;2.50;99.90;;;;;;5076334;28;20020;-89
2021/11/12 00:24:56;;;;;;;18.10;10.48;;;2.50;99.90;;;;;;5076297;28;20073;-88
2021/11/12 00:27:23;;;;;;;20.88;10.35;;;2.50;99.90;;;;;;5076210;28;20047;-89
2021/11/12 00:35:18;;;;;;;19.42;10.50;;;2.50;99.90;;;;;;5097359;28;20058;-90
2021/11/12 00:37:55;;;;;;;17.83;10.82;;;2.40;99.90;;;;;;5096433;28;20117;-90
2021/11/12 00:40:40;;;;;;;18.75;9.60;;;2.40;99.90;;;;;;5096431;28;20052;-89
2021/11/12 00:43:13;;;;;;;19.55;10.57;;;2.40;99.90;;;;;;5090099;28;20037;-89
2021/11/12 00:45:48;;;;;;;23.05;10.68;;;2.40;99.90;;;;;;5075459;28;20051;-90
2021/11/12 00:48:19;;;;;;;20.73;10.90;;;2.40;99.90;;;;;;5075986;28;20052;-90
2021/11/12 00:55:40;;;;;;;18.80;9.80;;;2.30;99.90;;;;;;5085575;28;20024;-89
2021/11/12 00:58:08;;;;;;;16.65;9.55;;;2.30;99.90;;;;;;5095790;28;20424;-88
2021/11/12 01:00:34;;;;;;;23.50;11.02;;;2.40;99.90;;;;;;5096016;28;20466;-91
2021/11/12 01:03:00;;;;;;;17.10;10.00;;;2.30;99.90;;;;;;5096843;28;20027;-89
2021/11/12 01:05:27;;;;;;;19.58;10.25;;;2.30;99.90;;;;;;5096232;28;20429;-90
2021/11/12 01:07:53;;;;;;;20.15;10.43;;;2.30;99.90;;;;;;5086882;28;20107;-89
2021/11/12 01:10:19;;;;;;;18.35;10.20;;;2.30;99.90;;;;;;5075124;28;20121;-87
2021/11/12 01:12:45;;;;;;;20.92;10.45;;;2.30;99.90;;;;;;5074634;28;20431;-89
2021/11/12 01:15:15;;;;;;;19.38;10.95;;;2.30;99.90;;;;;;5075321;28;20028;-90
2021/11/12 01:17:42;;;;;;;;;;;2.30;99.90;;;;;;5075607;28;20028;-88
2021/11/12 01:20:11;;;;;;;20.38;10.43;;;2.30;99.90;;;;;;5075297;28;20394;-89
2021/11/12 01:22:37;;;;;;;16.02;9.73;;;2.30;99.90;;;;;;5076542;28;20028;-89
2021/11/12 01:25:10;;;;;;;21.00;10.23;;;2.30;99.90;;;;;;5075547;28;20032;-89
2021/11/12 01:27:37;;;;;;;17.52;9.25;;;2.30;99.90;;;;;;5074858;28;20363;-90
2021/11/12 01:30:03;;;;;;;18.00;9.80;;;2.30;99.90;;;;;;5075157;28;20479;-88
2021/11/12 01:32:30;;;;;;;18.90;10.15;;;2.30;99.90;;;;;;5074013;28;20025;-89
2021/11/12 01:35:00;;;;;;;17.73;10.23;;;2.30;99.90;;;;;;5075939;28;20028;-90
2021/11/12 01:37:28;;;;;;;14.82;8.88;;;2.20;99.90;;;;;;5074817;28;20029;-88
2021/11/12 01:39:59;;;;;;;18.92;10.57;;;2.20;99.90;;;;;;5074769;28;20484;-89
2021/11/12 01:42:47;;;;;;;20.33;10.15;;;2.20;99.90;;;;;;5075862;28;20039;-89
2021/11/12 01:45:13;;;;;;;23.05;10.98;;;2.20;99.90;;;;;;5095667;28;20161;-89
2021/11/12 01:50:25;;;;;;;17.38;10.35;;;2.30;99.90;;;;;;5096027;28;20024;-89
2021/11/12 01:52:56;;;;;;;17.08;10.05;;;2.20;99.90;;;;;;5094286;28;20101;-89
2021/11/12 01:56:07;;;;;;;15.13;9.77;;;2.20;99.90;;;;;;5074098;28;20036;-89
2021/11/12 02:00:45;;;;;;;17.00;9.80;;;2.20;99.90;;;;;;5075845;28;20028;-89
2021/11/12 02:03:11;;;;;;;20.67;9.95;;;2.20;99.90;;;;;;5074027;28;20020;-89
2021/11/12 02:05:37;;;;;;;20.27;9.70;;;2.20;99.90;;;;;;5080679;28;20042;-88
2021/11/12 02:08:02;;;;;;;17.55;9.73;;;2.20;99.90;;;;;;5094328;28;20024;-90
2021/11/12 02:10:31;;;;;;;17.83;8.77;;;2.20;99.90;;;;;;5094579;28;20106;-89
2021/11/12 02:13:04;;;;;;;14.65;9.10;;;2.20;99.90;;;;;;5094548;28;20463;-89
2021/11/12 02:15:33;;;;;;;18.02;10.20;;;2.20;99.90;;;;;;5094562;28;20032;-89
2021/11/12 02:18:03;;;;;;;18.33;9.88;;;2.20;99.90;;;;;;5083042;28;20024;-87
2021/11/12 02:20:43;;;;;;;18.35;9.80;;;2.20;99.90;;;;;;5074029;28;20115;-88
2021/11/12 02:23:09;;;;;;;17.20;9.25;;;2.20;99.90;;;;;;5075106;28;20074;-89
2021/11/12 02:25:40;;;;;;;20.55;10.50;;;2.20;99.90;;;;;;5084901;28;20382;-89
2021/11/12 02:28:12;;;;;;;17.23;9.52;;;2.20;99.90;;;;;;5094286;28;20020;-88
2021/11/12 02:30:39;;;;;;;18.80;9.68;;;2.20;99.90;;;;;;5094380;28;20474;-89
2021/11/12 02:33:21;;;;;;;19.70;10.77;;;2.20;99.90;;;;;;5094168;28;20028;-90
2021/11/12 02:36:06;;;;;;;18.63;10.80;;;2.20;99.90;;;;;;5082726;28;20484;-88
2021/11/12 02:38:34;;;;;;;16.42;10.05;;;2.10;99.90;;;;;;5074892;28;20040;-88
2021/11/12 02:40:59;;;;;;;18.63;10.68;;;2.10;99.90;;;;;;5073650;28;20016;-89
2021/11/12 02:43:26;;;;;;;17.65;8.68;;;2.10;99.90;;;;;;5073470;28;20081;-88
2021/11/12 02:45:54;;;;;;;17.33;9.75;;;2.10;99.90;;;;;;5080216;28;20024;-89
2021/11/12 02:48:20;;;;;;;17.15;9.77;;;2.10;99.90;;;;;;5093689;28;20482;-89
2021/11/12 02:50:46;;;;;;;16.60;9.57;;;2.10;99.90;;;;;;5087438;28;20024;-90
2021/11/12 02:53:14;;;;;;;18.38;9.73;;;2.10;99.90;;;;;;5073625;28;20031;-89
2021/11/12 02:55:41;;;;;;;18.52;9.40;;;2.10;99.90;;;;;;5078190;28;20020;-88
2021/11/12 02:58:07;;;;;;;21.50;10.65;;;2.10;99.90;;;;;;5093617;28;20024;-88
2021/11/12 03:00:36;;;;;;;17.15;9.70;;;2.10;99.90;;;;;;5085123;28;20027;-88
2021/11/12 03:03:02;;;;;;;17.98;10.20;;;2.10;99.90;;;;;;5073337;28;20028;-89
2021/11/12 03:05:30;;;;;;;17.85;10.80;;;2.00;99.90;;;;;;5073388;28;20024;-89
2021/11/12 03:07:56;;;;;;;20.52;10.82;;;2.00;99.90;;;;;;5079372;28;20020;-89
2021/11/12 03:10:22;;;;;;;19.63;10.60;;;1.90;99.90;;;;;;5094108;28;20027;-89
2021/11/12 03:12:48;;;;;;;17.80;10.45;;;1.90;99.90;;;;;;5092994;28;20048;-89
2021/11/12 03:15:14;;;;;;;23.95;12.20;;;1.90;99.90;;;;;;5091605;28;20047;-89
2021/11/12 03:17:42;;;;;;;19.40;10.63;;;1.80;99.90;;;;;;5093527;28;20051;-90
2021/11/12 03:20:11;;;;;;;19.55;11.13;;;1.80;99.90;;;;;;5093270;28;20073;-88
2021/11/12 03:22:45;;;;;;;18.30;11.07;;;1.80;99.90;;;;;;5093258;28;20049;-88
2021/11/12 03:25:22;;;;;;;23.40;12.02;;;1.80;99.90;;;;;;5092868;28;20103;-89
2021/11/12 03:28:05;;;;;;;21.75;10.27;;;1.80;99.90;;;;;;5093469;28;20053;-87
2021/11/12 04:00:56;;;;;;;23.33;12.05;;;1.60;99.90;;;;;;5094174;28;20035;-87
2021/11/12 04:03:35;;;;;;;23.42;12.45;;;1.60;99.90;;;;;;5094232;28;20016;-86
2021/11/12 04:06:26;;;;;;;20.92;12.07;;;1.50;99.90;;;;;;5093540;28;20024;-89
2021/11/12 15:11:45;;;;;;;53.83;28.13;;;8.60;99.90;;;;;;5084562;28;20430;-94
2021/11/12 15:14:15;;;;;;;49.03;27.65;;;8.50;99.90;;;;;;5050470;28;20467;-91
2021/11/12 15:16:41;;;;;;;64.43;33.92;;;8.50;99.90;;;;;;5050349;28;20021;-91
2021/11/12 15:19:12;;;;;;;55.65;34.42;;;8.50;99.90;;;;;;5050447;28;20479;-89
2021/11/12 15:30:16;;;;;;;50.80;29.58;;;8.60;99.90;;;;;;5049871;28;20475;-90
2021/11/12 15:32:46;;;;;;;51.75;31.60;;;8.60;99.90;;;;;;5050446;28;20029;-90
2021/11/12 15:35:14;;;;;;;51.20;32.17;;;8.60;99.90;;;;;;5050263;28;20475;-90
2021/11/12 15:37:47;;;;;;;59.70;35.13;;;8.60;99.90;;;;;;5049944;28;20056;-90
2021/11/12 15:40:33;;;;;;;64.85;40.40;;;8.60;99.90;;;;;;5050160;28;20023;-90
2021/11/12 15:45:52;;;;;;;;;;;8.70;99.90;;;;;;5051673;28;20025;-89
2021/11/12 15:48:23;;;;;;;67.57;40.65;;;8.60;99.90;;;;;;5049822;28;19955;-90
2021/11/12 16:09:30;;;;;;;55.75;32.42;;;8.50;99.90;;;;;;5050819;28;20033;-91
2021/11/12 16:14:35;;;;;;;53.78;33.63;;;8.40;99.90;;;;;;5051085;28;20468;-92
2021/11/12 16:27:23;;;;;;;62.42;37.72;;;8.00;99.90;;;;;;5037379;28;20036;-92
2021/11/12 16:29:51;;;;;;;64.90;40.20;;;7.90;99.90;;;;;;5035729;28;20029;-92
2021/11/12 16:33:03;;;;;;;65.80;38.60;;;7.80;99.90;;;;;;5035988;28;20080;-91
2021/11/12 16:35:05;;;;;;;56.88;34.83;;;7.70;99.90;;;;;;5036531;28;20630;-92
2021/11/12 16:37:32;;;;;;;51.85;34.75;;;7.80;99.90;;;;;;5035710;28;20034;-91
2021/11/12 16:40:06;;;;;;;66.40;38.28;;;7.70;99.90;;;;;;5035666;28;20025;-90
2021/11/12 17:06:17;;;;;;;52.05;31.38;;;7.40;99.90;;;;;;5037046;28;20079;-91
2021/11/12 17:12:18;;;;;;;56.28;32.65;;;7.20;99.90;;;;;;5036055;28;20061;-91
2021/11/12 17:46:21;;;;;;;61.97;36.72;;;6.70;99.90;;;;;;5036010;28;20498;-92
2021/11/12 17:52:04;;;;;;;58.50;34.90;;;6.70;99.90;;;;;;5034594;28;20432;-91
2021/11/12 18:15:38;;;;;;;101.78;56.00;;;6.50;99.90;;;;;;5034989;28;20034;-91
2021/11/12 21:46:43;;;;;;;38.70;24.23;;;6.50;99.90;;;;;;5036048;28;20033;-92
2021/11/12 21:49:09;;;;;;;40.33;25.02;;;6.50;99.90;;;;;;5034568;28;20034;-92
2021/11/12 21:51:41;;;;;;;39.58;23.05;;;6.50;99.90;;;;;;5034444;28;20460;-93
2021/11/12 21:54:08;;;;;;;39.30;22.67;;;6.50;99.90;;;;;;5034767;28;20075;-92
2021/11/12 21:56:34;;;;;;;33.63;21.35;;;6.40;99.90;;;;;;5034397;28;20021;-93
2021/11/12 21:59:02;;;;;;;37.80;22.13;;;6.40;99.90;;;;;;5034382;28;20025;-92
2021/11/12 22:01:29;;;;;;;36.42;20.88;;;6.30;99.90;;;;;;5034349;28;20120;-93
2021/11/12 22:03:54;;;;;;;31.00;18.83;;;6.40;99.90;;;;;;5034627;28;20040;-92
2021/11/12 22:06:20;;;;;;;33.65;19.95;;;6.40;99.90;;;;;;5034385;28;20022;-93
2021/11/12 22:08:46;;;;;;;34.28;19.95;;;6.40;99.90;;;;;;5034201;28;20032;-92
2021/11/12 22:11:13;;;;;;;33.47;21.08;;;6.40;99.90;;;;;;5033871;28;20488;-92
2021/11/12 22:13:40;;;;;;;38.65;23.02;;;6.40;99.90;;;;;;5034001;28;20022;-94
2021/11/12 22:16:07;;;;;;;33.33;20.77;;;6.40;99.90;;;;;;5034147;28;20104;-94
2021/11/12 22:18:34;;;;;;;34.05;19.90;;;6.40;99.90;;;;;;5033825;28;20026;-92
2021/11/12 22:21:00;;;;;;;35.30;20.33;;;6.40;99.90;;;;;;5033505;28;20021;-93
2021/11/12 22:23:27;;;;;;;38.15;21.30;;;6.40;99.90;;;;;;5033912;28;20033;-93
2021/11/12 22:25:54;;;;;;;34.03;19.65;;;6.40;99.90;;;;;;5033943;28;20030;-92
2021/11/12 22:28:20;;;;;;;34.75;20.88;;;6.50;99.90;;;;;;5033889;28;20025;-93
2021/11/12 22:30:46;;;;;;;35.78;20.65;;;6.50;99.90;;;;;;5033935;28;20022;-93
2021/11/12 22:33:12;;;;;;;30.45;18.23;;;6.40;99.90;;;;;;5033794;28;20025;-93
2021/11/12 22:35:38;;;;;;;30.30;18.05;;;6.30;99.90;;;;;;5033775;28;20021;-94
2021/11/12 22:38:06;;;;;;;28.45;16.30;;;6.30;99.90;;;;;;5033688;28;20099;-92
2021/11/12 22:40:32;;;;;;;26.67;15.65;;;6.30;99.90;;;;;;5033739;28;20052;-92
2021/11/12 22:42:58;;;;;;;31.67;17.10;;;6.30;99.90;;;;;;5033571;28;20086;-91
2021/11/12 22:45:24;;;;;;;32.70;16.73;;;6.30;99.90;;;;;;5034096;28;20450;-92
2021/11/12 22:47:50;;;;;;;29.08;16.55;;;6.30;99.90;;;;;;5033647;28;20045;-92
2021/11/12 22:50:16;;;;;;;30.17;17.02;;;6.40;99.90;;;;;;5033358;28;20029;-92
2021/11/12 22:52:43;;;;;;;29.75;16.75;;;6.40;99.90;;;;;;5033522;28;20468;-92
2021/11/12 22:55:09;;;;;;;30.17;17.25;;;6.40;99.90;;;;;;5033751;28;20108;-92
2021/11/12 22:57:36;;;;;;;29.70;16.55;;;6.40;99.90;;;;;;5033535;28;20501;-92
2021/11/12 23:00:07;;;;;;;31.38;16.15;;;6.30;99.90;;;;;;5033506;28;20088;-92
2021/11/12 23:02:33;;;;;;;29.20;16.25;;;6.30;99.90;;;;;;5033248;28;20059;-92
2021/11/12 23:05:01;;;;;;;29.98;16.55;;;6.30;99.90;;;;;;5033396;28;20022;-92
2021/11/12 23:07:27;;;;;;;27.20;15.52;;;6.40;99.90;;;;;;5033412;28;20480;-92
2021/11/12 23:09:52;;;;;;;28.40;17.10;;;6.40;99.90;;;;;;5033149;28;20054;-93
2021/11/12 23:12:18;;;;;;;25.65;16.13;;;6.40;99.90;;;;;;5033428;28;20075;-91
2021/11/12 23:14:44;;;;;;;29.90;16.27;;;6.40;99.90;;;;;;5033467;28;20034;-92
2021/11/12 23:17:09;;;;;;;29.35;17.10;;;6.30;99.90;;;;;;5033604;28;20452;-92
2021/11/12 23:19:35;;;;;;;26.77;15.60;;;6.30;99.90;;;;;;5033399;28;20026;-91
2021/11/12 23:22:01;;;;;;;26.90;16.10;;;6.40;99.90;;;;;;5033359;28;20044;-91
2021/11/12 23:24:27;;;;;;;26.20;15.48;;;6.30;99.90;;;;;;5033391;28;20025;-92
2021/11/12 23:26:52;;;;;;;28.05;16.02;;;6.30;99.90;;;;;;5033458;28;20467;-92
2021/11/12 23:29:18;;;;;;;28.83;16.50;;;6.30;99.90;;;;;;5016708;28;20516;-91
2021/11/12 23:31:44;;;;;;;28.08;15.90;;;6.30;99.90;;;;;;5033965;28;20064;-91
2021/11/12 23:34:10;;;;;;;26.85;16.15;;;6.30;99.90;;;;;;5037077;28;20037;-88
2021/11/12 23:36:36;;;;;;;26.85;15.75;;;6.30;99.90;;;;;;5037182;28;20052;-88
2021/11/12 23:39:02;;;;;;;31.27;17.67;;;6.30;99.90;;;;;;5036953;28;20026;-89
2021/11/12 23:41:28;;;;;;;27.02;16.15;;;6.30;99.90;;;;;;5037031;28;20021;-89
2021/11/12 23:43:54;;;;;;;25.00;15.40;;;6.30;99.90;;;;;;5037298;28;20360;-89
2021/11/12 23:46:20;;;;;;;27.95;16.92;;;6.40;99.90;;;;;;5037108;28;20056;-89
2021/11/12 23:48:46;;;;;;;29.08;16.25;;;6.30;99.90;;;;;;5036799;28;20033;-89
2021/11/12 23:51:13;;;;;;;28.13;15.70;;;6.40;99.90;;;;;;5036864;28;20044;-89
2021/11/12 23:53:39;;;;;;;28.98;16.52;;;6.40;99.90;;;;;;5036761;28;20021;-89
2021/11/12 23:56:04;;;;;;;32.17;17.27;;;6.40;99.90;;;;;;5036745;28;20040;-89
2021/11/12 23:58:30;;;;;;;28.50;15.95;;;6.30;99.90;;;;;;5036713;28;20029;-90
